TimeMDT,TemperatureF,Dew PointF,Humidity,Sea Level PressureIn,VisibilityMPH,Wind Direction,Wind SpeedMPH,Gust SpeedMPH,PrecipitationIn,Events,Conditions,WindDirDegrees,DateUTC
12:53 AM,64.0,52.0,65,29.93,10.0,South,10.4,-,N/A,,Clear,190,2013-08-29 06:53:00
1:53 AM,62.1,52.0,70,29.94,10.0,South,9.2,-,N/A,,Clear,190,2013-08-29 07:53:00
2:53 AM,60.1,52.0,75,29.96,10.0,South,6.9,-,N/A,,Clear,190,2013-08-29 08:53:00
3:53 AM,55.9,50.0,80,30.00,10.0,West,3.5,-,N/A,,Clear,260,2013-08-29 09:53:00
4:53 AM,54.0,50.0,86,30.00,10.0,SSW,6.9,-,N/A,,Clear,210,2013-08-29 10:53:00
5:53 AM,59.0,52.0,78,29.99,10.0,SW,8.1,-,N/A,,Clear,220,2013-08-29 11:53:00
6:53 AM,55.9,51.1,84,30.01,10.0,SW,5.8,-,N/A,,Partly Cloudy,230,2013-08-29 12:53:00
7:53 AM,62.1,55.0,78,30.01,10.0,SSW,4.6,-,N/A,,Partly Cloudy,200,2013-08-29 13:53:00
8:53 AM,70.0,53.1,55,30.02,10.0,SSW,5.8,-,N/A,,Clear,210,2013-08-29 14:53:00
9:53 AM,75.0,53.1,46,30.00,10.0,SSW,8.1,-,N/A,,Clear,200,2013-08-29 15:53:00
10:53 AM,82.0,52.0,35,29.98,10.0,South,11.5,-,N/A,,Clear,190,2013-08-29 16:53:00
11:53 AM,84.9,48.9,29,29.96,10.0,Variable,5.8,-,N/A,,Clear,0,2013-08-29 17:53:00
12:53 PM,89.1,48.0,24,29.93,10.0,Variable,4.6,-,N/A,,Clear,0,2013-08-29 18:53:00
1:53 PM,91.0,45.0,20,29.91,10.0,SE,8.1,-,N/A,,Clear,140,2013-08-29 19:53:00
2:53 PM,93.0,45.0,19,29.89,10.0,ESE,8.1,-,N/A,,Scattered Clouds,120,2013-08-29 20:53:00
3:53 PM,91.0,42.1,18,29.88,10.0,SE,6.9,18.4,N/A,,Clear,140,2013-08-29 21:53:00
4:53 PM,91.9,39.9,16,29.86,10.0,SSE,8.1,-,N/A,,Partly Cloudy,160,2013-08-29 22:53:00
5:53 PM,93.0,41.0,16,29.83,10.0,South,10.4,-,N/A,,Clear,190,2013-08-29 23:53:00
6:53 PM,86.0,44.1,23,29.86,10.0,SSW,5.8,-,N/A,,Clear,200,2013-08-30 00:53:00
7:53 PM,81.0,45.0,28,29.86,10.0,South,5.8,-,N/A,,Clear,180,2013-08-30 01:53:00
8:33 PM,71.6,53.6,53,30.02,10.0,West,18.4,28.8,0.00,Rain,Light Rain,260,2013-08-30 02:33:00
8:53 PM,70.0,53.1,55,29.94,10.0,WNW,9.2,32.2,0.00,,Mostly Cloudy,300,2013-08-30 02:53:00
9:53 PM,66.0,52.0,60,29.96,10.0,NW,5.8,-,N/A,,Scattered Clouds,320,2013-08-30 03:53:00
10:53 PM,64.0,53.1,67,29.99,10.0,SSW,4.6,-,N/A,,Mostly Cloudy,200,2013-08-30 04:53:00
11:53 PM,64.0,55.0,73,29.99,10.0,ENE,3.5,-,N/A,,Scattered Clouds,60,2013-08-30 05:53:00